createdAt,value
2023-12-16T00:01:01.202Z,102517.00
2023-12-16T00:03:38.077Z,102508.72
2023-12-16T00:06:32.343Z,102505.41
2023-12-16T00:09:08.282Z,102514.50
2023-12-16T00:12:03.214Z,102497.97
2023-12-16T00:14:56.272Z,102532.38
2023-12-16T00:17:31.660Z,102525.25
2023-12-16T00:20:05.990Z,102531.22
2023-12-16T00:22:46.181Z,102508.91
2023-12-16T00:25:33.719Z,102532.53
2023-12-16T00:28:19.767Z,102536.19
2023-12-16T00:30:58.005Z,102538.97
2023-12-16T00:36:31.173Z,102545.63
2023-12-16T00:39:09.488Z,102516.72
2023-12-16T00:41:52.895Z,102544.81
2023-12-16T00:44:37.689Z,102554.41
2023-12-16T00:47:15.297Z,102548.63
2023-12-16T00:50:04.926Z,102552.75
2023-12-16T00:52:40.345Z,102546.81
2023-12-16T00:55:28.859Z,102550.59
2023-12-16T00:58:14.378Z,102554.06
2023-12-16T01:00:51.309Z,102541.16
2023-12-16T01:03:30.683Z,102558.03
2023-12-16T01:06:08.339Z,102546.59
2023-12-16T01:08:52.875Z,102553.88
2023-12-16T01:11:38.794Z,102554.38
2023-12-16T01:14:14.493Z,102548.88
2023-12-16T01:17:02.363Z,102557.34
2023-12-16T01:19:42.333Z,102550.41
2023-12-16T01:22:21.314Z,102553.34
2023-12-16T01:25:07.558Z,102555.19
2023-12-16T01:27:57.184Z,102551.06
2023-12-16T01:30:31.127Z,102558.34
2023-12-16T01:33:07.699Z,102561.50
2023-12-16T01:35:43.720Z,102557.53
2023-12-16T01:38:22.925Z,102566.63
2023-12-16T01:40:58.261Z,102527.72
2023-12-16T01:43:32.701Z,102574.88
2023-12-16T01:46:17.746Z,102562.97
2023-12-16T01:48:55.905Z,102565.63
2023-12-16T01:51:27.208Z,102572.94
2023-12-16T01:54:03.005Z,102574.53
2023-12-16T01:56:36.931Z,102577.03
2023-12-16T01:59:19.746Z,102579.03
2023-12-16T02:02:06.902Z,102579.19
2023-12-16T02:04:44.011Z,102588.28
2023-12-16T02:07:17.143Z,102594.09
2023-12-16T02:09:59.757Z,102585.94
2023-12-16T02:12:42.990Z,102592.06
2023-12-16T02:15:27.695Z,102590.09
2023-12-16T02:18:11.006Z,102595.16
2023-12-16T02:20:57.535Z,102611.03
2023-12-16T02:23:40.120Z,102606.94
2023-12-16T02:26:20.641Z,102616.06
2023-12-16T02:29:01.078Z,102617.81
2023-12-16T02:31:40.570Z,102611.50
2023-12-16T02:34:13.057Z,102622.41
2023-12-16T02:36:52.021Z,102611.63
2023-12-16T02:39:31.862Z,102605.47
2023-12-16T02:42:11.364Z,102613.66
2023-12-16T02:44:58.431Z,102607.88
2023-12-16T02:47:36.566Z,102618.31
2023-12-16T02:50:14.542Z,102632.84
2023-12-16T02:52:49.683Z,102629.28
2023-12-16T02:55:35.930Z,102642.38
2023-12-16T02:58:24.139Z,102647.81
2023-12-16T03:00:59.602Z,102642.44
2023-12-16T03:03:33.284Z,102653.47
2023-12-16T03:06:18.632Z,102657.16
2023-12-16T03:08:54.634Z,102659.06
2023-12-16T03:11:36.014Z,102667.56
2023-12-16T03:17:02.696Z,102668.03
2023-12-16T03:19:41.312Z,102677.81
2023-12-16T03:22:19.251Z,102678.44
2023-12-16T03:25:00.343Z,102690.88
2023-12-16T03:27:41.220Z,102699.28
2023-12-16T03:30:30.733Z,102696.28
2023-12-16T03:33:20.025Z,102693.34
2023-12-16T03:36:01.774Z,102704.28
2023-12-16T03:38:35.343Z,102707.13
2023-12-16T03:41:22.617Z,102711.06
2023-12-16T03:44:03.208Z,102726.94
2023-12-16T03:46:47.445Z,102718.34
2023-12-16T03:49:41.051Z,102706.84
2023-12-16T03:52:19.706Z,102712.97
2023-12-16T03:55:17.030Z,102718.41
2023-12-16T03:57:57.465Z,102728.81
2023-12-16T04:00:52.399Z,102721.44
2023-12-16T04:03:34.206Z,102742.19
2023-12-16T04:06:18.214Z,102715.31
2023-12-16T04:08:53.758Z,102744.13
2023-12-16T04:11:40.314Z,102741.81
2023-12-16T04:14:33.982Z,102749.97
2023-12-16T04:17:15.552Z,102714.38
2023-12-16T04:19:59.822Z,102751.91
2023-12-16T04:22:39.285Z,102746.44
2023-12-16T04:25:22.288Z,102758.94
2023-12-16T04:28:01.946Z,102755.34
2023-12-16T04:30:37.032Z,102769.53
2023-12-16T04:33:21.536Z,102779.78
2023-12-16T04:36:07.675Z,102768.91
2023-12-16T04:38:46.425Z,102783.63
2023-12-16T04:41:27.011Z,102772.59
2023-12-16T04:44:07.200Z,102784.66
2023-12-16T04:46:41.888Z,102790.78
2023-12-16T04:49:23.593Z,102782.06
2023-12-16T04:52:00.884Z,102802.97
2023-12-16T04:54:37.444Z,102788.72
2023-12-16T04:57:18.805Z,102802.59
2023-12-16T05:00:01.510Z,102793.31
2023-12-16T05:02:35.682Z,102793.09
2023-12-16T05:05:16.140Z,102795.16
2023-12-16T05:07:55.627Z,102792.06
2023-12-16T05:10:35.064Z,102804.00
2023-12-16T05:13:13.294Z,102797.66
2023-12-16T05:15:57.302Z,102793.13
2023-12-16T05:18:29.540Z,102792.44
2023-12-16T05:21:20.586Z,102771.63
2023-12-16T05:23:59.663Z,102787.91
2023-12-16T05:26:41.938Z,102794.44
2023-12-16T05:29:18.354Z,102806.06
2023-12-16T05:31:58.916Z,102803.09
2023-12-16T05:34:43.602Z,102791.91
2023-12-16T05:37:26.195Z,102800.75
2023-12-16T05:40:06.120Z,102810.09
2023-12-16T05:42:44.847Z,102808.81
2023-12-16T05:45:21.977Z,102806.19
2023-12-16T05:47:55.275Z,102803.59
2023-12-16T05:50:30.238Z,102799.31
2023-12-16T05:53:10.166Z,102800.63
2023-12-16T05:55:50.529Z,102804.63
2023-12-16T05:58:30.615Z,102807.44
2023-12-16T06:01:04.236Z,102820.88
2023-12-16T06:03:41.437Z,102787.75
2023-12-16T06:06:18.909Z,102802.69
2023-12-16T06:08:59.780Z,102788.72
2023-12-16T06:11:42.618Z,102802.31
2023-12-16T06:14:28.915Z,102805.63
2023-12-16T06:17:06.479Z,102813.56
2023-12-16T06:19:47.027Z,102812.22
2023-12-16T06:22:30.823Z,102807.13
2023-12-16T06:25:07.124Z,102811.22
2023-12-16T06:27:51.003Z,102807.22
2023-12-16T06:30:30.446Z,102818.31
2023-12-16T06:33:31.423Z,102825.09
2023-12-16T06:36:04.759Z,102802.50
2023-12-16T06:38:49.455Z,102819.44
2023-12-16T06:41:42.144Z,102819.25
2023-12-16T06:44:20.974Z,102806.50
2023-12-16T06:47:02.669Z,102801.84
2023-12-16T06:49:45.483Z,102824.22
2023-12-16T06:52:25.758Z,102822.38
2023-12-16T06:55:02.287Z,102823.69
2023-12-16T06:57:53.694Z,102834.59
2023-12-16T07:00:41.633Z,102844.34
2023-12-16T07:03:19.128Z,102847.94
2023-12-16T07:05:52.904Z,102818.13
2023-12-16T07:08:37.840Z,102851.81
2023-12-16T07:11:15.411Z,102848.97
2023-12-16T07:13:56.091Z,102873.81
2023-12-16T07:16:36.422Z,102874.97
2023-12-16T07:19:15.808Z,102856.25
2023-12-16T07:21:49.979Z,102870.84
2023-12-16T07:24:30.875Z,102884.13
2023-12-16T07:27:11.165Z,102877.66
2023-12-16T07:30:03.013Z,102882.22
2023-12-16T07:32:38.860Z,102888.41
2023-12-16T07:35:21.007Z,102886.28
2023-12-16T07:37:56.257Z,102886.59
2023-12-16T07:40:34.039Z,102892.22
2023-12-16T07:43:21.052Z,102877.72
2023-12-16T07:46:04.692Z,102877.34
2023-12-16T07:48:40.954Z,102875.03
2023-12-16T07:51:30.842Z,102877.19
2023-12-16T07:54:08.487Z,102874.50
2023-12-16T07:56:49.049Z,102874.97
2023-12-16T07:59:35.384Z,102885.91
2023-12-16T08:02:18.417Z,102887.47
2023-12-16T08:04:56.449Z,102896.28
2023-12-16T08:07:34.889Z,102903.72
2023-12-16T08:10:18.981Z,102903.56
2023-12-16T08:12:53.409Z,102908.25
2023-12-16T08:15:32.509Z,102906.75
2023-12-16T08:18:11.459Z,102880.53
2023-12-16T08:20:47.572Z,102912.97
2023-12-16T08:23:27.320Z,102910.84
2023-12-16T08:26:08.593Z,102899.25
2023-12-16T08:28:53.043Z,102918.66
2023-12-16T08:34:27.939Z,102909.72
2023-12-16T08:37:09.246Z,102922.44
2023-12-16T08:39:51.849Z,102923.31
2023-12-16T08:42:29.013Z,102921.94
2023-12-16T08:45:01.586Z,102921.94
2023-12-16T08:47:51.287Z,102923.34
2023-12-16T08:50:31.651Z,102920.31
2023-12-16T08:53:16.098Z,102919.34
2023-12-16T08:55:54.295Z,102920.38
2023-12-16T08:58:32.373Z,102938.31
2023-12-16T09:01:12.103Z,102920.09
2023-12-16T09:03:53.743Z,102934.84
2023-12-16T09:06:42.186Z,102938.59
2023-12-16T09:09:20.872Z,102925.38
2023-12-16T09:11:54.899Z,102936.47
2023-12-16T09:14:39.642Z,102938.78
2023-12-16T09:17:11.747Z,102938.63
2023-12-16T09:19:46.392Z,102942.78
2023-12-16T09:22:41.455Z,102904.47
2023-12-16T09:25:16.182Z,102934.34
2023-12-16T09:27:51.993Z,102934.69
2023-12-16T09:30:28.230Z,102900.53
2023-12-16T09:33:08.123Z,102916.28
2023-12-16T09:35:59.538Z,102912.47
2023-12-16T09:38:46.167Z,102928.41
2023-12-16T09:41:31.121Z,102919.13
2023-12-16T09:44:17.571Z,102933.88
2023-12-16T09:46:54.042Z,102934.72
2023-12-16T09:49:32.385Z,102944.19
2023-12-16T09:52:10.831Z,102950.63
2023-12-16T09:55:02.996Z,102941.69
2023-12-16T09:57:41.347Z,102951.47
2023-12-16T10:00:21.093Z,102954.44
2023-12-16T10:02:54.576Z,102952.78
2023-12-16T10:05:38.174Z,102955.28
2023-12-16T10:08:18.473Z,102970.19
2023-12-16T10:11:13.512Z,102958.25
2023-12-16T10:14:09.154Z,102972.19
2023-12-16T10:16:59.097Z,102959.25
2023-12-16T10:19:37.905Z,102957.09
2023-12-16T10:22:20.905Z,102957.44
2023-12-16T10:24:59.172Z,102963.72
2023-12-16T10:27:38.418Z,102969.53
2023-12-16T10:30:22.674Z,102963.91
2023-12-16T10:33:08.102Z,102958.72
2023-12-16T10:35:48.215Z,102928.66
2023-12-16T10:38:29.136Z,102953.91
2023-12-16T10:41:07.247Z,102948.63
2023-12-16T10:43:58.212Z,102962.38
2023-12-16T10:46:45.160Z,102970.19
2023-12-16T10:49:27.574Z,102976.84
2023-12-16T10:52:24.405Z,102978.50
2023-12-16T10:55:13.143Z,102969.81
2023-12-16T10:58:18.589Z,102979.81
2023-12-16T11:01:18.882Z,102971.19
2023-12-16T11:04:22.680Z,102975.69
2023-12-16T11:07:13.692Z,102971.03
2023-12-16T11:12:24.901Z,102966.69
2023-12-16T11:14:59.347Z,102964.69
2023-12-16T11:17:39.361Z,102971.31
2023-12-16T11:20:17.941Z,102950.06
2023-12-16T11:22:53.449Z,102960.84
2023-12-16T11:25:35.325Z,102966.81
2023-12-16T11:28:18.240Z,102972.44
2023-12-16T11:30:57.454Z,102961.97
2023-12-16T11:33:51.899Z,102956.97
2023-12-16T11:37:01.886Z,102952.97
2023-12-16T11:39:53.859Z,102955.06
2023-12-16T11:42:56.791Z,102964.59
2023-12-16T11:45:46.392Z,102960.22
2023-12-16T11:48:24.926Z,102972.69
2023-12-16T11:51:11.781Z,102974.31
2023-12-16T11:53:50.822Z,102946.25
2023-12-16T11:56:30.423Z,102956.38
2023-12-16T11:59:01.770Z,102957.13
2023-12-16T12:02:09.602Z,102954.22
2023-12-16T12:04:45.502Z,102942.53
2023-12-16T12:07:29.408Z,102938.47
2023-12-16T12:12:54.475Z,102947.59
2023-12-16T12:15:30.324Z,102951.63
2023-12-16T12:18:07.758Z,102945.63
2023-12-16T12:20:45.617Z,102942.34
2023-12-16T12:23:38.447Z,102938.09
2023-12-16T12:26:18.913Z,102938.38
2023-12-16T12:29:16.157Z,102936.19
2023-12-16T12:32:05.086Z,102936.09
2023-12-16T12:34:45.373Z,102935.34
2023-12-16T12:37:26.635Z,102950.97
2023-12-16T12:40:13.515Z,102937.56
2023-12-16T12:43:04.469Z,102933.44
2023-12-16T12:45:44.049Z,102925.63
2023-12-16T12:48:21.305Z,102921.94
2023-12-16T12:51:13.397Z,102922.44
2023-12-16T12:53:51.501Z,102903.38
2023-12-16T12:56:37.205Z,102927.88
2023-12-16T12:59:57.687Z,102929.53
2023-12-16T13:02:35.003Z,102860.75
2023-12-16T13:05:21.865Z,102924.63
2023-12-16T13:07:56.309Z,102923.66
2023-12-16T13:10:37.084Z,102932.72
2023-12-16T13:13:20.326Z,102941.41
2023-12-16T13:15:59.291Z,102937.97
2023-12-16T13:18:48.079Z,102923.16
2023-12-16T13:21:29.049Z,102928.47
2023-12-16T13:24:00.226Z,102944.44
2023-12-16T13:26:54.514Z,102926.00
2023-12-16T13:29:32.925Z,102925.47
2023-12-16T13:32:11.957Z,102941.28
2023-12-16T13:34:45.254Z,102949.16
2023-12-16T13:37:28.880Z,102942.34
2023-12-16T13:40:15.083Z,102946.47
2023-12-16T13:43:08.635Z,102943.97
2023-12-16T13:45:50.293Z,102946.53
2023-12-16T13:48:24.031Z,102958.41
2023-12-16T13:50:58.409Z,102950.38
2023-12-16T13:53:33.619Z,102961.09
2023-12-16T13:56:25.617Z,102960.91
2023-12-16T13:59:15.047Z,102965.03
2023-12-16T14:02:08.944Z,102961.91
2023-12-16T14:05:10.452Z,102960.91
2023-12-16T14:07:51.506Z,102968.53
2023-12-16T14:10:31.190Z,102938.84
2023-12-16T14:13:12.282Z,102975.09
2023-12-16T14:15:57.970Z,102968.38
2023-12-16T14:18:42.987Z,102973.09
2023-12-16T14:21:31.107Z,102985.38
2023-12-16T14:24:09.178Z,102984.75
2023-12-16T14:26:49.552Z,102969.09
2023-12-16T14:29:36.404Z,102979.53
2023-12-16T14:32:24.257Z,102976.91
2023-12-16T14:35:02.439Z,102980.31
2023-12-16T14:37:54.697Z,102988.59
2023-12-16T14:40:39.825Z,102983.16
2023-12-16T14:43:24.145Z,102949.03
2023-12-16T14:46:20.739Z,102983.69
2023-12-16T14:48:59.740Z,102979.91
2023-12-16T14:51:47.226Z,102983.84
2023-12-16T14:54:24.226Z,102986.34
2023-12-16T14:57:13.053Z,102987.16
2023-12-16T14:59:58.274Z,102996.16
2023-12-16T15:02:30.773Z,102995.31
2023-12-16T15:05:05.398Z,103000.66
2023-12-16T15:07:41.531Z,103003.50
2023-12-16T15:10:21.220Z,102999.81
2023-12-16T15:13:13.935Z,102996.84
2023-12-16T15:16:04.732Z,102990.91
2023-12-16T15:18:48.185Z,103007.34
2023-12-16T15:21:20.510Z,102998.22
2023-12-16T15:23:57.147Z,102991.94
2023-12-16T15:26:38.103Z,102994.59
2023-12-16T15:29:18.405Z,102970.13
2023-12-16T15:31:59.064Z,102988.72
2023-12-16T15:34:48.555Z,102994.38
2023-12-16T15:37:32.520Z,103001.25
2023-12-16T15:40:14.950Z,103014.25
2023-12-16T15:42:59.742Z,103016.16
2023-12-16T15:45:37.676Z,103018.50
2023-12-16T15:48:22.652Z,103010.41
2023-12-16T15:51:05.779Z,103022.03
2023-12-16T15:53:49.997Z,103033.88
2023-12-16T15:56:20.853Z,103041.56
2023-12-16T15:59:06.102Z,103043.22
2023-12-16T16:01:49.430Z,103043.28
2023-12-16T16:04:25.228Z,103048.94
2023-12-16T16:07:08.761Z,103052.97
2023-12-16T16:09:48.604Z,103057.13
2023-12-16T16:12:29.146Z,103059.31
2023-12-16T16:15:30.664Z,103062.66
2023-12-16T16:18:09.140Z,103053.06
2023-12-16T16:20:45.234Z,103062.69
2023-12-16T16:23:17.538Z,103042.94
2023-12-16T16:25:55.917Z,103070.34
2023-12-16T16:28:31.004Z,103071.50
2023-12-16T16:31:26.234Z,103061.72
2023-12-16T16:34:04.363Z,103072.69
2023-12-16T16:36:35.704Z,103070.19
2023-12-16T16:39:15.391Z,103064.06
2023-12-16T16:42:01.831Z,103075.84
2023-12-16T16:44:46.661Z,103082.00
2023-12-16T16:47:41.285Z,103078.69
2023-12-16T16:50:29.822Z,103062.06
2023-12-16T16:53:09.805Z,103076.19
2023-12-16T16:55:48.168Z,103071.22
2023-12-16T16:58:25.105Z,103072.84
2023-12-16T17:01:07.225Z,103045.81
2023-12-16T17:03:41.430Z,103067.88
2023-12-16T17:06:12.084Z,103077.69
2023-12-16T17:08:50.187Z,103067.41
2023-12-16T17:11:27.503Z,103066.25
2023-12-16T17:14:09.514Z,103058.13
2023-12-16T17:16:55.629Z,103065.75
2023-12-16T17:19:39.660Z,103058.16
2023-12-16T17:22:11.433Z,103059.47
2023-12-16T17:24:44.929Z,103064.13
2023-12-16T17:27:22.940Z,103071.25
2023-12-16T17:30:03.031Z,103086.34
2023-12-16T17:32:39.354Z,103085.03
2023-12-16T17:35:26.114Z,103093.34
2023-12-16T17:38:09.095Z,103093.00
2023-12-16T17:40:48.571Z,103093.69
2023-12-16T17:43:35.063Z,103090.03
2023-12-16T17:46:21.864Z,103095.34
2023-12-16T17:49:20.515Z,103052.81
2023-12-16T17:52:14.884Z,103093.00
2023-12-16T17:54:52.925Z,103093.34
2023-12-16T17:57:38.865Z,103101.16
2023-12-16T18:00:22.543Z,103099.97
2023-12-16T18:02:56.268Z,103109.94
2023-12-16T18:05:43.932Z,103103.13
2023-12-16T18:08:29.467Z,103116.06
2023-12-16T18:11:11.336Z,103132.81
2023-12-16T18:13:52.952Z,103120.56
2023-12-16T18:16:34.895Z,103128.00
2023-12-16T18:19:15.480Z,103131.16
2023-12-16T18:21:50.220Z,103127.00
2023-12-16T18:24:27.910Z,103131.81
2023-12-16T18:27:06.149Z,103122.84
2023-12-16T18:29:41.368Z,103130.81
2023-12-16T18:32:18.638Z,103118.66
2023-12-16T18:34:54.170Z,103138.75
2023-12-16T18:37:35.556Z,103100.53
2023-12-16T18:40:31.494Z,103131.91
2023-12-16T18:43:18.046Z,103132.56
2023-12-16T18:45:55.442Z,103104.78
2023-12-16T18:48:35.124Z,103135.84
2023-12-16T18:51:14.535Z,103146.09
2023-12-16T18:53:52.413Z,103149.09
2023-12-16T18:56:40.709Z,103127.47
2023-12-16T18:59:18.172Z,103150.91
2023-12-16T19:01:52.062Z,103157.56
2023-12-16T19:04:26.230Z,103155.56
2023-12-16T19:07:00.808Z,103162.13
2023-12-16T19:09:43.507Z,103150.72
2023-12-16T19:12:29.648Z,103150.53
2023-12-16T19:15:14.897Z,103156.31
2023-12-16T19:17:51.197Z,103150.34
2023-12-16T19:20:25.256Z,103150.19
2023-12-16T19:22:58.996Z,103141.88
2023-12-16T19:25:42.723Z,103153.16
2023-12-16T19:28:21.777Z,103152.31
2023-12-16T19:31:05.582Z,103151.81
2023-12-16T19:33:47.530Z,103152.19
2023-12-16T19:36:29.921Z,103158.09
2023-12-16T19:39:03.577Z,103149.81
2023-12-16T19:41:35.196Z,103151.16
2023-12-16T19:44:21.978Z,103151.31
2023-12-16T19:47:12.653Z,103159.25
2023-12-16T19:49:54.930Z,103156.47
2023-12-16T19:52:45.296Z,103158.09
2023-12-16T19:55:19.816Z,103166.53
2023-12-16T19:57:57.581Z,103175.16
2023-12-16T20:00:52.762Z,103177.69
2023-12-16T20:03:33.312Z,103171.81
2023-12-16T20:06:08.026Z,103181.63
2023-12-16T20:08:59.866Z,103178.19
2023-12-16T20:11:34.541Z,103187.13
2023-12-16T20:14:11.336Z,103174.81
2023-12-16T20:16:58.734Z,103180.16
2023-12-16T20:19:37.788Z,103173.22
2023-12-16T20:22:19.339Z,103190.47
2023-12-16T20:24:53.770Z,103198.09
2023-12-16T20:27:30.956Z,103202.09
2023-12-16T20:30:04.191Z,103200.28
2023-12-16T20:32:37.479Z,103194.66
2023-12-16T20:35:12.705Z,103203.47
2023-12-16T20:37:57.902Z,103177.50
2023-12-16T20:40:40.910Z,103194.84
2023-12-16T20:43:18.269Z,103206.44
2023-12-16T20:45:56.195Z,103208.56
2023-12-16T20:48:45.038Z,103209.03
2023-12-16T20:51:20.682Z,103208.19
2023-12-16T20:54:00.119Z,103224.09
2023-12-16T20:56:44.882Z,103216.75
2023-12-16T20:59:23.155Z,103220.47
2023-12-16T21:02:02.116Z,103213.63
2023-12-16T21:04:40.773Z,103210.97
2023-12-16T21:07:22.344Z,103201.38
2023-12-16T21:09:56.911Z,103212.28
2023-12-16T21:12:35.140Z,103213.97
2023-12-16T21:15:19.443Z,103205.25
2023-12-16T21:18:22.291Z,103218.56
2023-12-16T21:21:11.224Z,103203.63
2023-12-16T21:23:50.826Z,103216.22
2023-12-16T21:26:28.843Z,103221.16
2023-12-16T21:29:06.231Z,103221.47
2023-12-16T21:31:37.388Z,103230.78
2023-12-16T21:34:14.730Z,103228.13
2023-12-16T21:37:02.901Z,103236.09
2023-12-16T21:39:37.964Z,103241.53
2023-12-16T21:42:17.432Z,103247.66
2023-12-16T21:44:57.259Z,103232.69
2023-12-16T21:47:37.532Z,103228.91
2023-12-16T21:50:15.527Z,103241.78
2023-12-16T21:52:53.421Z,103247.91
2023-12-16T21:55:28.184Z,103246.25
2023-12-16T21:58:10.203Z,103241.09
2023-12-16T22:00:50.049Z,103242.91
2023-12-16T22:03:30.381Z,103256.31
2023-12-16T22:06:03.997Z,103248.81
2023-12-16T22:08:53.079Z,103253.13
2023-12-16T22:11:38.121Z,103252.16
2023-12-16T22:14:16.570Z,103245.56
2023-12-16T22:16:54.547Z,103267.16
2023-12-16T22:19:33.153Z,103263.97
2023-12-16T22:22:11.119Z,103266.91
2023-12-16T22:24:59.781Z,103266.25
2023-12-16T22:27:36.436Z,103268.25
2023-12-16T22:30:13.260Z,103268.56
2023-12-16T22:32:59.658Z,103266.91
2023-12-16T22:35:39.523Z,103272.91
2023-12-16T22:38:19.518Z,103268.56
2023-12-16T22:40:55.856Z,103281.69
2023-12-16T22:43:32.835Z,103276.53
2023-12-16T22:46:09.987Z,103279.03
2023-12-16T22:48:49.401Z,103285.16
2023-12-16T22:51:25.991Z,103277.34
2023-12-16T22:54:04.028Z,103281.16
2023-12-16T22:56:41.174Z,103277.94
2023-12-16T22:59:20.401Z,103284.69
2023-12-16T23:01:57.770Z,103290.28
2023-12-16T23:04:40.534Z,103287.94
2023-12-16T23:07:33.561Z,103282.53
2023-12-16T23:10:24.632Z,103292.16
2023-12-16T23:13:05.556Z,103287.53
2023-12-16T23:15:41.733Z,103274.38
2023-12-16T23:18:13.324Z,103275.03
2023-12-16T23:20:55.347Z,103282.72
2023-12-16T23:23:36.071Z,103272.84
2023-12-16T23:26:12.871Z,103282.31
2023-12-16T23:28:51.526Z,103278.75
2023-12-16T23:31:30.280Z,103278.44
2023-12-16T23:34:10.887Z,103266.63
2023-12-16T23:36:48.532Z,103279.13
2023-12-16T23:39:22.563Z,103289.88
2023-12-16T23:42:03.345Z,103282.91
2023-12-16T23:44:51.621Z,103287.34
2023-12-16T23:47:31.702Z,103282.75
2023-12-16T23:50:13.995Z,103277.59
2023-12-16T23:52:52.686Z,103266.25
2023-12-16T23:55:40.835Z,103280.13
2023-12-16T23:58:21.713Z,103281.09
